• Join FlightAware (Why Join?)
  • Login
  • US Flag 
01:48AM EDT


 

Airport Tracker/Info


-or-


 

Live Flight TrackerFlight Track Log ✈ RPA3894 ✈ 13-May-2013 ✈ KDEN - KMCI

Flight Track Log - Related Links

Times and Time Zones

All times are in EDT time to prevent confusion due to time zone crossing. See the RPA3894 flight status page for this flight to view local times or setup timezone preferences in your user account.

Time Position Orientation Groundspeed Altitude Reporting Facility
EDT Latitude Longitude Course Direction KTS MPH feet Rate Location/Type
12:01AM 39.8833 -104.6167 90° East 194 223 6,400  Level Denver TRACON
12:02AM 39.8833 -104.5333 90° East 234 269 8,100 1,740 Climbing Denver TRACON
12:03AM 39.8719 -104.4789 105° East 237 273 9,100 1,560 Climbing Denver Center
12:04AM 39.8642 -104.3858 96° East 255 293 10,600 1,200 Climbing Denver Center
12:05AM 39.8614 -104.2803 92° East 290 334 11,600 1,080 Climbing Denver Center
12:06AM 39.8675 -104.1711 86° East 305 351 12,800 1,140 Climbing Denver Center
12:07AM 39.8719 -104.0500 87° East 311 358 14,000 1,020 Climbing Denver Center
12:08AM 39.8750 -103.9342 88° East 321 369 15,000 900 Climbing Denver Center
12:09AM 39.8797 -103.8178 87° East 322 371 15,900 1,080 Climbing Denver Center
12:10AM 39.8847 -103.6939 87° East 313 360 17,200 1,080 Climbing Denver Center
12:11AM 39.8917 -103.5850 85° East 316 364 18,100 840 Climbing Denver Center
12:12AM 39.8936 -103.4756 89° East 318 366 19,000 960 Climbing Denver Center
12:13AM 39.8978 -103.3439 88° East 317 365 20,100 1,020 Climbing Denver Center
12:14AM 39.9003 -103.2353 88° East 315 362 21,100 900 Climbing Denver Center
12:15AM 39.9039 -103.1283 87° East 310 357 22,000 840 Climbing Denver Center
12:16AM 39.9067 -103.0003 88° East 316 364 22,900 780 Climbing Denver Center
12:17AM 39.9094 -102.8928 88° East 312 359 23,700 780 Climbing Denver Center
12:18AM 39.9125 -102.7858 88° East 308 354 24,500 600 Climbing Denver Center
12:19AM 39.9142 -102.6600 89° East 310 357 25,000 240 Climbing Denver Center
12:20AM 39.9169 -102.5458 88° East 327 376 25,000  Level Denver Center
12:21AM 39.9197 -102.4483 88° East 336 387 25,000  Level Denver Center
12:22AM 39.9231 -102.2861 88° East 351 404 25,000  Level Denver Center
12:23AM 39.9264 -102.1228 88° East 354 407 25,000  Level Denver Center
12:24AM 39.9281 -101.9981 89° East 359 413 25,000  Level Denver Center
12:25AM 39.9294 -101.8750 89° East 357 411 25,000  Level Denver Center
12:26AM 39.9319 -101.7328 89° East 353 406 25,000  Level Denver Center
12:27AM 39.9331 -101.6092 89° East 356 410 25,000  Level Denver Center
12:28AM 39.9347 -101.4867 89° East 355 409 25,000  Level Denver Center
12:29AM 39.9364 -101.3419 89° East 359 413 25,000  Level Denver Center
12:30AM 39.9375 -101.2203 89° East 354 407 25,000  Level Denver Center
12:31AM 39.9394 -101.0786 89° East 351 404 25,000  Level Denver Center
12:32AM 39.9403 -100.9567 89° East 352 405 25,000  Level Denver Center
12:33AM 39.9411 -100.8350 89° East 352 405 25,000  Level Denver Center
12:34AM 39.9414 -100.6922 90° East 354 407 25,000  Level Denver Center
12:35AM 39.9431 -100.5700 89° East 353 406 25,000  Level Denver Center
12:36AM 39.9433 -100.4472 90° East 354 407 25,000  Level Denver Center
12:37AM 39.9433 -100.3050 90° East 353 406 25,000  Level Denver Center
12:38AM 39.9433 -100.1850 90° East 352 405 25,000  Level Denver Center
12:39AM 39.9442 -100.0586 89° East 351 404 25,000  Level Denver Center
12:40AM 39.9436 -99.9317 90° East 350 403 25,000  Level Denver Center
12:41AM 39.9433 -99.8044 90° East 352 405 25,000  Level Denver Center
12:42AM 39.9419 -99.6775 91° East 353 406 25,000  Level Denver Center
12:43AM 39.9428 -99.5508 89° East 350 403 25,000  Level Denver Center
12:44AM 39.9422 -99.4236 90° East 353 406 25,000  Level Denver Center
12:45AM 39.9414 -99.2703 90° East 354 407 25,000  Level Denver Center
12:46AM 39.9403 -99.1428 91° East 354 407 25,000  Level Denver Center
12:47AM 39.9392 -99.0144 91° East 355 409 25,000  Level Denver Center
12:48AM 39.9381 -98.8864 91° East 355 409 25,000  Level Denver Center
12:49AM 39.9367 -98.7575 91° East 357 411 25,000  Level Denver Center
12:51AM 39.9350 -98.6292 91° East 356 410 25,000 -300 Level Denver Center
12:52AM 39.9331 -98.5006 91° East 357 411 24,500 -780 Descending Denver Center
12:53AM 39.9306 -98.3703 91° East 359 413 23,500 -960 Descending Denver Center
12:54AM 39.9194 -98.2183 95° East 358 412 22,400 -960 Descending Minneapolis Center
12:55AM 39.8956 -98.0894 104° East 365 420 21,400 -1,080 Descending Minneapolis Center
12:56AM 39.8736 -97.9578 102° East 370 426 20,300 -1,080 Descending Minneapolis Center
12:57AM 39.8519 -97.8264 102° East 373 429 19,300 -660 Descending Minneapolis Center
12:58AM 39.8297 -97.6964 103° East 371 427 19,000 -180 Descending Minneapolis Center
12:59AM 39.8089 -97.5667 102° East 368 423 19,000  Level Minneapolis Center
01:00AM 39.7864 -97.4408 103° East 363 418 19,000  Level Minneapolis Center
01:01AM 39.7642 -97.3131 103° East 361 415 19,000  Level Minneapolis Center
01:02AM 39.7417 -97.1831 103° East 360 414 19,000  Level Minneapolis Center
01:03AM 39.7192 -97.0578 103° East 358 412 19,000  Level Minneapolis Center
01:03AM 39.7153 -97.0294 100° East 358 412 19,000  Level Kansas City Center
01:04AM 39.6928 -96.9028 103° East 359 413 19,000  Level Kansas City Center
01:05AM 39.6656 -96.7586 104° East 362 417 19,000  Level Kansas City Center
01:06AM 39.6450 -96.6378 102° East 358 412 19,000 -360 Level Kansas City Center
01:07AM 39.6225 -96.5158 103° East 362 417 18,300 -900 Descending Kansas City Center
01:08AM 39.5947 -96.3686 104° East 377 434 17,200 -1,080 Descending Kansas City Center
01:09AM 39.5722 -96.2436 103° East 374 430 16,200 -1,020 Descending Kansas City Center
01:10AM 39.5489 -96.1186 104° East 373 429 15,200 -1,080 Descending Kansas City Center
01:11AM 39.5225 -95.9756 103° East 367 422 14,100 -1,080 Descending Kansas City Center
01:12AM 39.5006 -95.8575 104° East 356 410 13,100 -960 Descending Kansas City Center
01:13AM 39.4797 -95.7406 103° East 351 404 12,200 -900 Descending Kansas City Center
01:14AM 39.4567 -95.6261 105° East 344 396 11,300 -900 Descending Kansas City Center
01:15AM 39.4350 -95.5033 103° East 313 360 10,500 -900 Descending Kansas City Center
01:16AM 39.4133 -95.3994 105° East 310 357 9,600 -960 Descending Kansas City Center
01:17AM 39.3956 -95.2978 103° East 302 348 8,600 -1,020 Descending Kansas City Center
01:18AM 39.3756 -95.1981 105° East 296 341 7,600 -1,080 Descending Kansas City Center
01:19AM 39.3542 -95.0828 103° East 292 336 6,500 -1,380 Descending Kansas City Center
01:20AM 39.3311 -94.9917 108° East 280 322 4,900 -1,680 Descending Kansas City Center
01:21AM 39.3069 -94.9058 110° East 267 307 3,200 -1,200 Descending Kansas City Center
01:22AM 39.3000 -94.8314 97° East 217 250 2,600 -780 Descending Kansas City Center
01:23AM 39.2944 -94.7692 97° East 154 177 1,700 -780 Descending Kansas City Center
01:24AM 39.2908 -94.7256 96° East 129 148 1,100 -600 Descending Kansas City Center
01:26AM 39.2976 -94.7139 108° East  Level Estimated